Huvudsida
METAR-TAF:

METAR-TAF

Flygplatser :

Umeå Airport

Umeå, Sverige

latitud: 63-48N, longitud: 020-17E, höjd: 7 m

Aktuellt väderrapport

Denna rapport gjordes för 43 minuter sedan, klockan 18:50 UTC
Vind 3 kt från väst/sydväst
Temperatur 20°C
Fuktighet 73%
Tryck 1011 hPa
Sikt 10 km eller mer
Inga moln under 1 500 m eller inga cumulonimbus

METAR: ESNU 181850Z 24003KT CAVOK 20/15 Q1011

Tid: 21:33 (19:33 UTC)

Väderprognos

Denna rapport gjordes för 2 timmar och 3 minuter sedan, klockan 17:30 UTC
Prognos gäller från 18 kl. 18 UTC till 19 kl. 03 UTC
Vind 5 kt från syd/sydost
Sikt 10 km eller mer
Inga moln under 1 500 m eller inga cumulonimbus
Sannolikhet 40%
från 19 kl. 00 UTC till 19 kl. 03 UTC
Sikt: 0300 m
på en höjd av 200 ft
dimma,

TAF: ESNU 181730Z 1818/1903 16005KT CAVOK PROB40 1900/1903 0300 FG VV002

Aktuella väderrapporter och prognoser från 4000 flygplatser (METAR- och TAF-rapporter).

De tillgängliga stationerna syns som gula och röda prickar på kartan.

För musen över prickarna för att se namnen på stationerna.

Klicka sedan för att få väderrapporter och prognoser.

För att ändra kartan: Klicka på de gröna knapparna med ett svart kors på för att zooma in; den gröna knappen med ett streck på för att zooma ut; eller på de gröna pilarna för angränsande kartor.


METAR-TAF: